sensor_id;sensor_type;location;lat;lon;timestamp;temperature;humidity
40287;DHT22;25998;46.604;13.610;2023-11-22T00:02:37;5.80;99.90
40287;DHT22;25998;46.604;13.610;2023-11-22T00:05:52;5.80;99.90
40287;DHT22;25998;46.604;13.610;2023-11-22T00:09:03;5.80;99.90
40287;DHT22;25998;46.604;13.610;2023-11-22T00:12:20;5.80;99.90
40287;DHT22;25998;46.604;13.610;2023-11-22T00:15:31;5.80;99.90
40287;DHT22;25998;46.604;13.610;2023-11-22T00:18:44;5.90;99.90
40287;DHT22;25998;46.604;13.610;2023-11-22T00:21:59;5.90;99.90
40287;DHT22;25998;46.604;13.610;2023-11-22T00:25:10;6.10;99.90
40287;DHT22;25998;46.604;13.610;2023-11-22T00:28:24;6.10;99.90
40287;DHT22;25998;46.604;13.610;2023-11-22T00:31:35;6.00;99.90
40287;DHT22;25998;46.604;13.610;2023-11-22T00:34:49;6.10;99.90
40287;DHT22;25998;46.604;13.610;2023-11-22T00:38:00;6.10;99.90
40287;DHT22;25998;46.604;13.610;2023-11-22T00:41:11;6.10;99.90
40287;DHT22;25998;46.604;13.610;2023-11-22T00:44:25;6.00;99.90
40287;DHT22;25998;46.604;13.610;2023-11-22T00:47:38;5.90;99.90
40287;DHT22;25998;46.604;13.610;2023-11-22T00:50:57;5.90;99.90
40287;DHT22;25998;46.604;13.610;2023-11-22T00:54:13;5.80;99.90
40287;DHT22;25998;46.604;13.610;2023-11-22T00:57:24;5.80;99.90
40287;DHT22;25998;46.604;13.610;2023-11-22T01:00:37;5.80;99.90
40287;DHT22;25998;46.604;13.610;2023-11-22T01:03:51;5.80;99.90
40287;DHT22;25998;46.604;13.610;2023-11-22T01:07:05;5.80;99.90
40287;DHT22;25998;46.604;13.610;2023-11-22T01:10:17;5.90;99.90
40287;DHT22;25998;46.604;13.610;2023-11-22T01:13:28;6.10;99.90
40287;DHT22;25998;46.604;13.610;2023-11-22T01:16:41;6.20;99.90
40287;DHT22;25998;46.604;13.610;2023-11-22T01:20:01;6.10;99.90
40287;DHT22;25998;46.604;13.610;2023-11-22T01:23:18;6.00;99.90
40287;DHT22;25998;46.604;13.610;2023-11-22T01:26:29;5.90;99.90
40287;DHT22;25998;46.604;13.610;2023-11-22T01:29:41;6.00;99.90
40287;DHT22;25998;46.604;13.610;2023-11-22T01:32:54;5.90;99.90
40287;DHT22;25998;46.604;13.610;2023-11-22T01:36:06;5.90;99.90
40287;DHT22;25998;46.604;13.610;2023-11-22T01:39:19;6.00;99.90
40287;DHT22;25998;46.604;13.610;2023-11-22T01:42:37;6.10;99.90
40287;DHT22;25998;46.604;13.610;2023-11-22T01:45:50;6.10;99.90
40287;DHT22;25998;46.604;13.610;2023-11-22T01:49:04;5.90;99.90
40287;DHT22;25998;46.604;13.610;2023-11-22T01:52:20;5.80;99.90
40287;DHT22;25998;46.604;13.610;2023-11-22T01:55:32;5.80;99.90
40287;DHT22;25998;46.604;13.610;2023-11-22T01:58:44;5.70;99.90
40287;DHT22;25998;46.604;13.610;2023-11-22T02:01:58;5.70;99.90
40287;DHT22;25998;46.604;13.610;2023-11-22T02:05:09;5.60;99.90
40287;DHT22;25998;46.604;13.610;2023-11-22T02:08:21;5.70;99.90
40287;DHT22;25998;46.604;13.610;2023-11-22T02:11:39;5.70;99.90
40287;DHT22;25998;46.604;13.610;2023-11-22T02:14:52;5.70;99.90
40287;DHT22;25998;46.604;13.610;2023-11-22T02:18:06;5.80;99.90
40287;DHT22;25998;46.604;13.610;2023-11-22T02:21:17;5.60;99.90
40287;DHT22;25998;46.604;13.610;2023-11-22T02:24:28;5.50;99.90
40287;DHT22;25998;46.604;13.610;2023-11-22T02:27:42;5.50;99.90
40287;DHT22;25998;46.604;13.610;2023-11-22T02:30:57;5.50;99.90
40287;DHT22;25998;46.604;13.610;2023-11-22T02:34:11;5.50;99.90
40287;DHT22;25998;46.604;13.610;2023-11-22T02:37:22;5.50;99.90
40287;DHT22;25998;46.604;13.610;2023-11-22T02:40:35;5.60;99.90
40287;DHT22;25998;46.604;13.610;2023-11-22T02:43:46;5.60;99.90
40287;DHT22;25998;46.604;13.610;2023-11-22T02:46:57;5.50;99.90
40287;DHT22;25998;46.604;13.610;2023-11-22T02:50:14;5.70;99.90
40287;DHT22;25998;46.604;13.610;2023-11-22T02:53:26;5.80;99.90
40287;DHT22;25998;46.604;13.610;2023-11-22T02:56:37;5.80;99.90
40287;DHT22;25998;46.604;13.610;2023-11-22T02:59:48;5.80;99.90
40287;DHT22;25998;46.604;13.610;2023-11-22T03:03:02;5.70;99.90
40287;DHT22;25998;46.604;13.610;2023-11-22T03:06:16;5.60;99.90
40287;DHT22;25998;46.604;13.610;2023-11-22T03:09:27;5.50;99.90
40287;DHT22;25998;46.604;13.610;2023-11-22T03:12:41;5.50;99.90
40287;DHT22;25998;46.604;13.610;2023-11-22T03:15:52;5.60;99.90
40287;DHT22;25998;46.604;13.610;2023-11-22T03:19:03;5.50;99.90
40287;DHT22;25998;46.604;13.610;2023-11-22T03:22:17;5.40;99.90
40287;DHT22;25998;46.604;13.610;2023-11-22T03:25:31;5.40;99.90
40287;DHT22;25998;46.604;13.610;2023-11-22T03:28:42;5.40;99.90
40287;DHT22;25998;46.604;13.610;2023-11-22T03:31:52;5.30;99.90
40287;DHT22;25998;46.604;13.610;2023-11-22T03:35:04;5.30;99.90
40287;DHT22;25998;46.604;13.610;2023-11-22T03:38:15;5.30;99.90
40287;DHT22;25998;46.604;13.610;2023-11-22T03:41:26;5.20;99.90
40287;DHT22;25998;46.604;13.610;2023-11-22T03:44:40;5.20;99.90
40287;DHT22;25998;46.604;13.610;2023-11-22T03:47:56;5.20;99.90
40287;DHT22;25998;46.604;13.610;2023-11-22T03:51:07;5.30;99.90
40287;DHT22;25998;46.604;13.610;2023-11-22T03:54:21;5.20;99.90
40287;DHT22;25998;46.604;13.610;2023-11-22T03:57:34;5.30;99.90
40287;DHT22;25998;46.604;13.610;2023-11-22T04:00:54;5.30;99.90
40287;DHT22;25998;46.604;13.610;2023-11-22T04:04:05;5.20;99.90
40287;DHT22;25998;46.604;13.610;2023-11-22T04:07:19;5.20;99.90
40287;DHT22;25998;46.604;13.610;2023-11-22T04:10:30;5.10;99.90
40287;DHT22;25998;46.604;13.610;2023-11-22T04:13:44;5.10;99.90
40287;DHT22;25998;46.604;13.610;2023-11-22T04:16:55;5.00;99.90
40287;DHT22;25998;46.604;13.610;2023-11-22T04:20:09;5.10;99.90
40287;DHT22;25998;46.604;13.610;2023-11-22T04:23:25;5.00;99.90
40287;DHT22;25998;46.604;13.610;2023-11-22T04:26:39;5.10;99.90
40287;DHT22;25998;46.604;13.610;2023-11-22T04:29:50;5.00;99.90
40287;DHT22;25998;46.604;13.610;2023-11-22T04:33:13;5.10;99.90
40287;DHT22;25998;46.604;13.610;2023-11-22T04:36:24;5.20;99.90
40287;DHT22;25998;46.604;13.610;2023-11-22T04:39:36;5.30;99.90
40287;DHT22;25998;46.604;13.610;2023-11-22T04:42:50;5.20;99.90
40287;DHT22;25998;46.604;13.610;2023-11-22T04:46:05;5.20;99.90
40287;DHT22;25998;46.604;13.610;2023-11-22T04:49:21;5.20;99.90
40287;DHT22;25998;46.604;13.610;2023-11-22T04:52:36;5.20;99.90
40287;DHT22;25998;46.604;13.610;2023-11-22T04:55:56;5.20;99.90
40287;DHT22;25998;46.604;13.610;2023-11-22T04:59:10;5.20;99.90
40287;DHT22;25998;46.604;13.610;2023-11-22T05:02:24;5.30;99.90
40287;DHT22;25998;46.604;13.610;2023-11-22T05:05:35;5.40;99.90
40287;DHT22;25998;46.604;13.610;2023-11-22T05:08:49;5.40;99.90
40287;DHT22;25998;46.604;13.610;2023-11-22T05:12:00;5.50;99.90
40287;DHT22;25998;46.604;13.610;2023-11-22T05:15:14;5.50;99.90
40287;DHT22;25998;46.604;13.610;2023-11-22T05:18:27;5.40;99.90
40287;DHT22;25998;46.604;13.610;2023-11-22T05:21:38;5.30;99.90
40287;DHT22;25998;46.604;13.610;2023-11-22T05:24:52;5.40;99.90
40287;DHT22;25998;46.604;13.610;2023-11-22T05:28:09;5.40;99.90
40287;DHT22;25998;46.604;13.610;2023-11-22T05:31:23;5.40;99.90
40287;DHT22;25998;46.604;13.610;2023-11-22T05:34:34;5.50;99.90
40287;DHT22;25998;46.604;13.610;2023-11-22T05:37:48;5.50;99.90
40287;DHT22;25998;46.604;13.610;2023-11-22T05:40:59;5.40;99.90
40287;DHT22;25998;46.604;13.610;2023-11-22T05:44:14;5.30;99.90
40287;DHT22;25998;46.604;13.610;2023-11-22T05:47:27;5.40;99.90
40287;DHT22;25998;46.604;13.610;2023-11-22T05:54:29;5.40;99.90
40287;DHT22;25998;46.604;13.610;2023-11-22T05:57:41;5.60;99.90
40287;DHT22;25998;46.604;13.610;2023-11-22T06:00:54;5.60;99.90
40287;DHT22;25998;46.604;13.610;2023-11-22T06:04:10;5.60;99.90
40287;DHT22;25998;46.604;13.610;2023-11-22T06:07:21;5.40;99.90
40287;DHT22;25998;46.604;13.610;2023-11-22T06:10:33;5.40;99.90
40287;DHT22;25998;46.604;13.610;2023-11-22T06:13:44;5.40;99.90
40287;DHT22;25998;46.604;13.610;2023-11-22T06:16:56;5.40;99.90
40287;DHT22;25998;46.604;13.610;2023-11-22T06:20:08;5.30;99.90
40287;DHT22;25998;46.604;13.610;2023-11-22T06:23:20;5.10;99.90
40287;DHT22;25998;46.604;13.610;2023-11-22T06:26:34;5.00;99.90
40287;DHT22;25998;46.604;13.610;2023-11-22T06:29:45;5.00;99.90
40287;DHT22;25998;46.604;13.610;2023-11-22T06:32:57;5.20;99.90
40287;DHT22;25998;46.604;13.610;2023-11-22T06:36:08;5.10;99.90
40287;DHT22;25998;46.604;13.610;2023-11-22T06:39:22;5.10;99.90
40287;DHT22;25998;46.604;13.610;2023-11-22T06:42:41;4.90;99.90
40287;DHT22;25998;46.604;13.610;2023-11-22T06:45:52;4.90;99.90
40287;DHT22;25998;46.604;13.610;2023-11-22T06:49:06;4.90;99.90
40287;DHT22;25998;46.604;13.610;2023-11-22T06:52:18;5.00;99.90
40287;DHT22;25998;46.604;13.610;2023-11-22T06:55:29;5.00;99.90
40287;DHT22;25998;46.604;13.610;2023-11-22T06:58:41;5.00;99.90
40287;DHT22;25998;46.604;13.610;2023-11-22T07:01:52;4.90;99.90
40287;DHT22;25998;46.604;13.610;2023-11-22T07:05:06;4.90;99.90
40287;DHT22;25998;46.604;13.610;2023-11-22T07:08:20;4.80;99.90
40287;DHT22;25998;46.604;13.610;2023-11-22T07:11:32;4.90;99.90
40287;DHT22;25998;46.604;13.610;2023-11-22T07:14:47;4.90;99.90
40287;DHT22;25998;46.604;13.610;2023-11-22T07:18:00;4.90;99.90
40287;DHT22;25998;46.604;13.610;2023-11-22T07:21:11;4.90;99.90
40287;DHT22;25998;46.604;13.610;2023-11-22T07:24:22;5.10;99.90
40287;DHT22;25998;46.604;13.610;2023-11-22T07:27:34;5.00;99.90
40287;DHT22;25998;46.604;13.610;2023-11-22T07:30:45;5.00;99.90
40287;DHT22;25998;46.604;13.610;2023-11-22T07:33:59;5.00;99.90
40287;DHT22;25998;46.604;13.610;2023-11-22T07:37:15;4.90;99.90
40287;DHT22;25998;46.604;13.610;2023-11-22T07:40:27;4.90;99.90
40287;DHT22;25998;46.604;13.610;2023-11-22T07:43:41;5.00;99.90
40287;DHT22;25998;46.604;13.610;2023-11-22T07:46:52;5.20;99.90
40287;DHT22;25998;46.604;13.610;2023-11-22T07:50:04;5.40;99.90
40287;DHT22;25998;46.604;13.610;2023-11-22T07:53:18;5.40;99.90
40287;DHT22;25998;46.604;13.610;2023-11-22T07:56:28;5.30;99.90
40287;DHT22;25998;46.604;13.610;2023-11-22T07:59:43;5.50;99.90
40287;DHT22;25998;46.604;13.610;2023-11-22T08:02:54;5.50;99.90
40287;DHT22;25998;46.604;13.610;2023-11-22T08:06:06;5.40;99.90
40287;DHT22;25998;46.604;13.610;2023-11-22T08:09:17;5.60;99.90
40287;DHT22;25998;46.604;13.610;2023-11-22T08:12:28;5.60;99.90
40287;DHT22;25998;46.604;13.610;2023-11-22T08:15:39;5.70;99.90
40287;DHT22;25998;46.604;13.610;2023-11-22T08:18:53;5.70;99.90
40287;DHT22;25998;46.604;13.610;2023-11-22T08:22:03;5.60;99.90
40287;DHT22;25998;46.604;13.610;2023-11-22T08:25:14;5.70;99.90
40287;DHT22;25998;46.604;13.610;2023-11-22T08:28:26;5.60;99.90
40287;DHT22;25998;46.604;13.610;2023-11-22T08:31:40;5.50;99.90
40287;DHT22;25998;46.604;13.610;2023-11-22T08:34:51;5.60;99.90
40287;DHT22;25998;46.604;13.610;2023-11-22T08:38:03;5.60;99.90
40287;DHT22;25998;46.604;13.610;2023-11-22T08:41:15;5.60;99.90
40287;DHT22;25998;46.604;13.610;2023-11-22T08:44:27;5.60;99.90
40287;DHT22;25998;46.604;13.610;2023-11-22T08:47:41;5.70;99.90
40287;DHT22;25998;46.604;13.610;2023-11-22T08:50:53;5.70;99.90
40287;DHT22;25998;46.604;13.610;2023-11-22T08:54:06;5.70;99.90
40287;DHT22;25998;46.604;13.610;2023-11-22T08:57:20;5.70;99.90
40287;DHT22;25998;46.604;13.610;2023-11-22T09:00:31;5.60;99.90
40287;DHT22;25998;46.604;13.610;2023-11-22T09:03:43;5.60;99.90
40287;DHT22;25998;46.604;13.610;2023-11-22T09:06:54;5.60;99.90
40287;DHT22;25998;46.604;13.610;2023-11-22T09:10:07;5.60;99.90
40287;DHT22;25998;46.604;13.610;2023-11-22T09:13:21;5.70;99.90
40287;DHT22;25998;46.604;13.610;2023-11-22T09:16:38;5.70;99.90
40287;DHT22;25998;46.604;13.610;2023-11-22T09:19:49;5.60;99.90
40287;DHT22;25998;46.604;13.610;2023-11-22T09:23:00;5.70;99.90
40287;DHT22;25998;46.604;13.610;2023-11-22T09:26:14;5.70;99.90
40287;DHT22;25998;46.604;13.610;2023-11-22T09:29:25;5.70;99.90
40287;DHT22;25998;46.604;13.610;2023-11-22T09:32:36;5.60;99.90
40287;DHT22;25998;46.604;13.610;2023-11-22T09:35:48;5.70;99.90
40287;DHT22;25998;46.604;13.610;2023-11-22T09:39:00;5.70;99.90
40287;DHT22;25998;46.604;13.610;2023-11-22T09:42:13;5.70;99.90
40287;DHT22;25998;46.604;13.610;2023-11-22T09:45:24;5.70;99.90
40287;DHT22;25998;46.604;13.610;2023-11-22T09:48:36;5.70;99.90
40287;DHT22;25998;46.604;13.610;2023-11-22T09:51:48;5.80;99.90
40287;DHT22;25998;46.604;13.610;2023-11-22T09:55:02;5.90;99.90
40287;DHT22;25998;46.604;13.610;2023-11-22T09:58:16;5.90;99.90
40287;DHT22;25998;46.604;13.610;2023-11-22T10:01:27;5.80;99.90
40287;DHT22;25998;46.604;13.610;2023-11-22T10:04:41;5.80;99.90
40287;DHT22;25998;46.604;13.610;2023-11-22T10:07:52;5.90;99.90
40287;DHT22;25998;46.604;13.610;2023-11-22T10:11:03;6.00;99.90
40287;DHT22;25998;46.604;13.610;2023-11-22T10:14:24;6.10;99.90
40287;DHT22;25998;46.604;13.610;2023-11-22T10:17:36;6.20;99.90
40287;DHT22;25998;46.604;13.610;2023-11-22T10:20:48;6.10;99.90
40287;DHT22;25998;46.604;13.610;2023-11-22T10:24:03;5.90;99.90
40287;DHT22;25998;46.604;13.610;2023-11-22T10:27:15;6.00;99.90
40287;DHT22;25998;46.604;13.610;2023-11-22T10:30:27;6.00;99.90
40287;DHT22;25998;46.604;13.610;2023-11-22T10:33:40;6.10;99.90
40287;DHT22;25998;46.604;13.610;2023-11-22T10:36:55;6.10;99.90
40287;DHT22;25998;46.604;13.610;2023-11-22T10:40:06;6.10;99.90
40287;DHT22;25998;46.604;13.610;2023-11-22T10:43:21;6.10;99.90
40287;DHT22;25998;46.604;13.610;2023-11-22T10:46:39;6.30;99.90
40287;DHT22;25998;46.604;13.610;2023-11-22T10:49:50;6.40;99.90
40287;DHT22;25998;46.604;13.610;2023-11-22T10:53:03;6.20;99.90
40287;DHT22;25998;46.604;13.610;2023-11-22T10:56:19;6.40;99.90
40287;DHT22;25998;46.604;13.610;2023-11-22T10:59:31;7.10;99.90
40287;DHT22;25998;46.604;13.610;2023-11-22T11:02:46;7.30;99.90
40287;DHT22;25998;46.604;13.610;2023-11-22T11:06:02;7.50;99.90
40287;DHT22;25998;46.604;13.610;2023-11-22T11:09:15;7.70;99.90
40287;DHT22;25998;46.604;13.610;2023-11-22T11:12:29;8.00;99.90
40287;DHT22;25998;46.604;13.610;2023-11-22T11:15:41;8.00;99.90
40287;DHT22;25998;46.604;13.610;2023-11-22T11:18:54;8.40;99.90
40287;DHT22;25998;46.604;13.610;2023-11-22T11:22:10;8.50;99.90
40287;DHT22;25998;46.604;13.610;2023-11-22T11:25:21;8.10;99.90
40287;DHT22;25998;46.604;13.610;2023-11-22T11:28:42;8.40;99.90
40287;DHT22;25998;46.604;13.610;2023-11-22T11:31:55;8.00;99.90
40287;DHT22;25998;46.604;13.610;2023-11-22T11:35:07;8.00;99.90
40287;DHT22;25998;46.604;13.610;2023-11-22T11:38:22;8.40;99.90
40287;DHT22;25998;46.604;13.610;2023-11-22T11:41:41;8.50;99.90
40287;DHT22;25998;46.604;13.610;2023-11-22T11:45:07;8.30;99.90
40287;DHT22;25998;46.604;13.610;2023-11-22T11:48:21;8.20;99.90
40287;DHT22;25998;46.604;13.610;2023-11-22T11:51:32;8.30;99.90
40287;DHT22;25998;46.604;13.610;2023-11-22T11:54:50;8.60;99.90
40287;DHT22;25998;46.604;13.610;2023-11-22T11:58:06;8.80;99.90
40287;DHT22;25998;46.604;13.610;2023-11-22T12:01:22;8.50;99.90
40287;DHT22;25998;46.604;13.610;2023-11-22T12:04:33;7.90;99.90
40287;DHT22;25998;46.604;13.610;2023-11-22T12:07:47;7.90;99.90
40287;DHT22;25998;46.604;13.610;2023-11-22T12:10:59;8.30;99.90
40287;DHT22;25998;46.604;13.610;2023-11-22T12:14:12;8.60;99.90
40287;DHT22;25998;46.604;13.610;2023-11-22T12:17:23;8.70;99.90
40287;DHT22;25998;46.604;13.610;2023-11-22T12:20:41;8.40;99.90
40287;DHT22;25998;46.604;13.610;2023-11-22T12:23:54;8.60;99.90
40287;DHT22;25998;46.604;13.610;2023-11-22T12:27:20;8.80;99.90
40287;DHT22;25998;46.604;13.610;2023-11-22T12:30:35;8.50;99.90
40287;DHT22;25998;46.604;13.610;2023-11-22T12:33:48;8.50;99.90
40287;DHT22;25998;46.604;13.610;2023-11-22T12:37:00;8.50;99.90
40287;DHT22;25998;46.604;13.610;2023-11-22T12:40:12;8.90;99.90
40287;DHT22;25998;46.604;13.610;2023-11-22T12:43:26;8.80;99.90
40287;DHT22;25998;46.604;13.610;2023-11-22T12:46:55;8.80;99.90
40287;DHT22;25998;46.604;13.610;2023-11-22T12:50:38;8.80;99.90
40287;DHT22;25998;46.604;13.610;2023-11-22T12:53:50;8.70;99.90
40287;DHT22;25998;46.604;13.610;2023-11-22T12:57:10;9.00;99.90
40287;DHT22;25998;46.604;13.610;2023-11-22T13:00:23;9.20;99.90
40287;DHT22;25998;46.604;13.610;2023-11-22T13:03:42;8.80;99.90
40287;DHT22;25998;46.604;13.610;2023-11-22T13:06:53;8.50;99.90
40287;DHT22;25998;46.604;13.610;2023-11-22T13:10:05;8.50;99.90
40287;DHT22;25998;46.604;13.610;2023-11-22T13:13:16;8.50;99.90
40287;DHT22;25998;46.604;13.610;2023-11-22T13:16:30;8.40;99.90
40287;DHT22;25998;46.604;13.610;2023-11-22T13:19:41;8.60;99.90
40287;DHT22;25998;46.604;13.610;2023-11-22T13:22:55;8.90;99.90
40287;DHT22;25998;46.604;13.610;2023-11-22T13:26:06;9.20;99.90
40287;DHT22;25998;46.604;13.610;2023-11-22T13:29:28;9.30;99.90
40287;DHT22;25998;46.604;13.610;2023-11-22T13:32:42;9.10;99.90
40287;DHT22;25998;46.604;13.610;2023-11-22T13:35:55;9.00;99.90
40287;DHT22;25998;46.604;13.610;2023-11-22T13:39:06;8.80;99.90
40287;DHT22;25998;46.604;13.610;2023-11-22T13:42:20;8.80;99.90
40287;DHT22;25998;46.604;13.610;2023-11-22T13:45:40;8.90;99.90
40287;DHT22;25998;46.604;13.610;2023-11-22T13:48:52;9.30;99.90
40287;DHT22;25998;46.604;13.610;2023-11-22T13:52:03;9.40;99.90
40287;DHT22;25998;46.604;13.610;2023-11-22T13:55:15;9.60;99.90
40287;DHT22;25998;46.604;13.610;2023-11-22T13:58:34;9.70;99.90
40287;DHT22;25998;46.604;13.610;2023-11-22T14:01:46;9.50;99.90
40287;DHT22;25998;46.604;13.610;2023-11-22T14:04:57;9.50;99.90
40287;DHT22;25998;46.604;13.610;2023-11-22T14:08:09;9.50;99.90
40287;DHT22;25998;46.604;13.610;2023-11-22T14:11:23;9.20;99.90
40287;DHT22;25998;46.604;13.610;2023-11-22T14:14:36;9.30;99.90
40287;DHT22;25998;46.604;13.610;2023-11-22T14:17:47;9.40;99.90
40287;DHT22;25998;46.604;13.610;2023-11-22T14:21:01;9.30;99.90
40287;DHT22;25998;46.604;13.610;2023-11-22T14:24:13;9.00;99.90
40287;DHT22;25998;46.604;13.610;2023-11-22T14:27:24;8.80;99.90
40287;DHT22;25998;46.604;13.610;2023-11-22T14:30:36;8.80;99.90
40287;DHT22;25998;46.604;13.610;2023-11-22T14:33:47;8.70;99.90
40287;DHT22;25998;46.604;13.610;2023-11-22T14:36:58;8.80;99.90
40287;DHT22;25998;46.604;13.610;2023-11-22T14:40:09;8.80;99.90
40287;DHT22;25998;46.604;13.610;2023-11-22T14:43:27;8.50;99.90
40287;DHT22;25998;46.604;13.610;2023-11-22T14:46:38;8.40;99.90
40287;DHT22;25998;46.604;13.610;2023-11-22T14:49:52;8.20;99.90
40287;DHT22;25998;46.604;13.610;2023-11-22T14:53:04;8.20;99.90
40287;DHT22;25998;46.604;13.610;2023-11-22T14:56:16;8.20;99.90
40287;DHT22;25998;46.604;13.610;2023-11-22T14:59:29;8.00;99.90
40287;DHT22;25998;46.604;13.610;2023-11-22T15:02:48;7.90;99.90
40287;DHT22;25998;46.604;13.610;2023-11-22T15:06:04;7.90;99.90
40287;DHT22;25998;46.604;13.610;2023-11-22T15:09:15;7.70;99.90
40287;DHT22;25998;46.604;13.610;2023-11-22T15:12:26;7.60;99.90
40287;DHT22;25998;46.604;13.610;2023-11-22T15:15:40;7.60;99.90
40287;DHT22;25998;46.604;13.610;2023-11-22T15:18:51;7.50;99.90
40287;DHT22;25998;46.604;13.610;2023-11-22T15:22:02;7.40;99.90
40287;DHT22;25998;46.604;13.610;2023-11-22T15:25:13;7.50;99.90
40287;DHT22;25998;46.604;13.610;2023-11-22T15:28:26;7.30;99.90
40287;DHT22;25998;46.604;13.610;2023-11-22T15:31:36;7.40;99.90
40287;DHT22;25998;46.604;13.610;2023-11-22T15:34:47;7.30;99.90
40287;DHT22;25998;46.604;13.610;2023-11-22T15:37:58;7.20;99.90
40287;DHT22;25998;46.604;13.610;2023-11-22T15:41:09;7.20;99.90
40287;DHT22;25998;46.604;13.610;2023-11-22T15:44:20;7.00;99.90
40287;DHT22;25998;46.604;13.610;2023-11-22T15:47:32;7.00;99.90
40287;DHT22;25998;46.604;13.610;2023-11-22T15:50:43;6.90;99.90
40287;DHT22;25998;46.604;13.610;2023-11-22T15:53:53;6.70;99.90
40287;DHT22;25998;46.604;13.610;2023-11-22T15:57:04;6.70;99.90
40287;DHT22;25998;46.604;13.610;2023-11-22T16:00:15;6.70;99.90
40287;DHT22;25998;46.604;13.610;2023-11-22T16:03:26;6.60;99.90
40287;DHT22;25998;46.604;13.610;2023-11-22T16:06:38;6.50;99.90
40287;DHT22;25998;46.604;13.610;2023-11-22T16:09:49;6.40;99.90
40287;DHT22;25998;46.604;13.610;2023-11-22T16:13:01;6.30;99.90
40287;DHT22;25998;46.604;13.610;2023-11-22T16:16:12;6.20;99.90
40287;DHT22;25998;46.604;13.610;2023-11-22T16:19:23;6.30;99.90
40287;DHT22;25998;46.604;13.610;2023-11-22T16:22:35;6.30;99.90
40287;DHT22;25998;46.604;13.610;2023-11-22T16:25:49;6.20;99.90
40287;DHT22;25998;46.604;13.610;2023-11-22T16:29:00;5.90;99.90
40287;DHT22;25998;46.604;13.610;2023-11-22T16:32:11;5.90;99.90
40287;DHT22;25998;46.604;13.610;2023-11-22T16:35:22;5.80;99.90
40287;DHT22;25998;46.604;13.610;2023-11-22T16:38:33;5.70;99.90
40287;DHT22;25998;46.604;13.610;2023-11-22T16:41:44;5.60;99.90
40287;DHT22;25998;46.604;13.610;2023-11-22T16:44:55;5.50;99.90
40287;DHT22;25998;46.604;13.610;2023-11-22T16:48:06;5.50;99.90
40287;DHT22;25998;46.604;13.610;2023-11-22T16:51:18;5.40;99.90
40287;DHT22;25998;46.604;13.610;2023-11-22T16:54:29;5.40;99.90
40287;DHT22;25998;46.604;13.610;2023-11-22T16:57:40;5.50;99.90
40287;DHT22;25998;46.604;13.610;2023-11-22T17:00:51;5.60;99.90
40287;DHT22;25998;46.604;13.610;2023-11-22T17:04:01;5.70;99.90
40287;DHT22;25998;46.604;13.610;2023-11-22T17:07:13;5.60;99.90
40287;DHT22;25998;46.604;13.610;2023-11-22T17:10:24;5.70;99.90
40287;DHT22;25998;46.604;13.610;2023-11-22T17:13:35;5.70;99.90
40287;DHT22;25998;46.604;13.610;2023-11-22T17:16:47;5.90;99.90
40287;DHT22;25998;46.604;13.610;2023-11-22T17:19:58;5.80;99.90
40287;DHT22;25998;46.604;13.610;2023-11-22T17:23:10;5.60;99.90
40287;DHT22;25998;46.604;13.610;2023-11-22T17:26:21;5.50;99.90
40287;DHT22;25998;46.604;13.610;2023-11-22T17:29:32;5.40;99.90
40287;DHT22;25998;46.604;13.610;2023-11-22T17:32:43;5.10;99.90
40287;DHT22;25998;46.604;13.610;2023-11-22T17:35:54;4.90;99.90
40287;DHT22;25998;46.604;13.610;2023-11-22T17:39:05;4.80;99.90
40287;DHT22;25998;46.604;13.610;2023-11-22T17:42:16;4.70;99.90
40287;DHT22;25998;46.604;13.610;2023-11-22T17:45:30;4.70;99.90
40287;DHT22;25998;46.604;13.610;2023-11-22T17:48:41;4.90;99.90
40287;DHT22;25998;46.604;13.610;2023-11-22T17:51:52;5.00;99.90
40287;DHT22;25998;46.604;13.610;2023-11-22T17:55:05;5.10;99.90
40287;DHT22;25998;46.604;13.610;2023-11-22T17:58:16;5.10;99.90
40287;DHT22;25998;46.604;13.610;2023-11-22T18:01:27;5.00;99.90
40287;DHT22;25998;46.604;13.610;2023-11-22T18:04:39;5.10;99.90
40287;DHT22;25998;46.604;13.610;2023-11-22T18:07:50;5.10;99.90
40287;DHT22;25998;46.604;13.610;2023-11-22T18:11:01;5.10;99.90
40287;DHT22;25998;46.604;13.610;2023-11-22T18:14:12;5.20;99.90
40287;DHT22;25998;46.604;13.610;2023-11-22T18:17:23;5.20;99.90
40287;DHT22;25998;46.604;13.610;2023-11-22T18:20:34;5.40;99.90
40287;DHT22;25998;46.604;13.610;2023-11-22T18:23:45;5.40;99.90
40287;DHT22;25998;46.604;13.610;2023-11-22T18:26:56;5.30;99.90
40287;DHT22;25998;46.604;13.610;2023-11-22T18:30:08;5.30;99.90
40287;DHT22;25998;46.604;13.610;2023-11-22T18:33:20;5.30;99.90
40287;DHT22;25998;46.604;13.610;2023-11-22T18:36:31;5.30;99.90
40287;DHT22;25998;46.604;13.610;2023-11-22T18:39:42;5.40;99.90
40287;DHT22;25998;46.604;13.610;2023-11-22T18:42:53;5.40;99.90
40287;DHT22;25998;46.604;13.610;2023-11-22T18:46:04;5.50;99.90
40287;DHT22;25998;46.604;13.610;2023-11-22T18:49:15;5.50;99.90
40287;DHT22;25998;46.604;13.610;2023-11-22T18:52:26;5.50;99.90
40287;DHT22;25998;46.604;13.610;2023-11-22T18:55:37;5.50;99.90
40287;DHT22;25998;46.604;13.610;2023-11-22T18:58:48;5.50;99.90
40287;DHT22;25998;46.604;13.610;2023-11-22T19:01:59;5.60;99.90
40287;DHT22;25998;46.604;13.610;2023-11-22T19:05:11;5.60;99.90
40287;DHT22;25998;46.604;13.610;2023-11-22T19:08:22;5.50;99.90
40287;DHT22;25998;46.604;13.610;2023-11-22T19:11:33;5.50;99.90
40287;DHT22;25998;46.604;13.610;2023-11-22T19:14:44;5.50;99.90
40287;DHT22;25998;46.604;13.610;2023-11-22T19:17:54;5.40;99.90
40287;DHT22;25998;46.604;13.610;2023-11-22T19:21:06;5.50;99.90
40287;DHT22;25998;46.604;13.610;2023-11-22T19:24:17;5.50;99.90
40287;DHT22;25998;46.604;13.610;2023-11-22T19:27:28;5.50;99.90
40287;DHT22;25998;46.604;13.610;2023-11-22T19:30:43;5.60;99.90
40287;DHT22;25998;46.604;13.610;2023-11-22T19:33:54;5.60;99.90
40287;DHT22;25998;46.604;13.610;2023-11-22T19:37:04;5.60;99.90
40287;DHT22;25998;46.604;13.610;2023-11-22T19:40:15;5.60;99.90
40287;DHT22;25998;46.604;13.610;2023-11-22T19:43:26;5.60;99.90
40287;DHT22;25998;46.604;13.610;2023-11-22T19:46:37;5.60;99.90
40287;DHT22;25998;46.604;13.610;2023-11-22T19:49:48;5.50;99.90
40287;DHT22;25998;46.604;13.610;2023-11-22T19:52:59;5.60;99.90
40287;DHT22;25998;46.604;13.610;2023-11-22T19:56:11;5.60;99.90
40287;DHT22;25998;46.604;13.610;2023-11-22T19:59:22;5.70;99.90
40287;DHT22;25998;46.604;13.610;2023-11-22T20:02:33;5.70;99.90
40287;DHT22;25998;46.604;13.610;2023-11-22T20:05:43;5.70;99.90
40287;DHT22;25998;46.604;13.610;2023-11-22T20:08:55;5.70;99.90
40287;DHT22;25998;46.604;13.610;2023-11-22T20:12:06;5.80;99.90
40287;DHT22;25998;46.604;13.610;2023-11-22T20:15:17;5.80;99.90
40287;DHT22;25998;46.604;13.610;2023-11-22T20:18:27;5.80;99.90
40287;DHT22;25998;46.604;13.610;2023-11-22T20:21:39;5.70;99.90